Погода Мадинанина неделю

Одиенне, Кот-д’Ивуар

22 - 28 февраля
  • 22февраля
    Сегодня
    +16°
    +32°
    Ясно и безоблачно
    ВремяПогодаТемператураВлажностьДавлениеВетер, м/сВероятность осадков
    00:00Ясно и безоблачно+20°C49 %719 мм1.8 м/с2 %
    03:00Ясно и безоблачно+18°C48 %717 мм2.7 м/с2 %
    06:00Ясно и безоблачно+17°C51 %718 мм2.2 м/с2 %
    09:00Ясно и безоблачно+22°C44 %722 мм0.1 м/с2 %
    12:00Облачно с прояснениями+28°C21 %721 мм1.6 м/с2 %
    15:00Ясно и безоблачно+31°C18 %719 мм2.3 м/с2 %
    18:00Облачно с прояснениями+27°C43 %719 мм1.8 м/с2 %
    21:00Практически безоблачно+21°C48 %719 мм0.7 м/с2 %
  • 23февраля
    Пятница
    +16°
    +33°
    Ясно и безоблачно
    ВремяПогодаТемператураВлажностьДавлениеВетер, м/сВероятность осадков
    00:00Ясно и безоблачно+18°C41 %719 мм2.3 м/с2 %
    03:00Практически безоблачно+18°C41 %718 мм2.9 м/с2 %
    06:00Небольшая облачность+17°C39 %719 мм2.0 м/с2 %
    09:00Ясно и безоблачно+22°C35 %721 мм1.2 м/с2 %
    12:00Ясно и безоблачно+28°C19 %721 мм2.1 м/с2 %
    15:00Ясно и безоблачно+32°C18 %719 мм2.0 м/с2 %
    18:00Практически безоблачно+27°C41 %719 мм1.8 м/с2 %
    21:00Ясно и безоблачно+24°C34 %720 мм1.7 м/с2 %
  • 24февраля
    Суббота
    +18°
    +34°
    Облачно с прояснениями
    ВремяПогодаТемператураВлажностьДавлениеВетер, м/сВероятность осадков
    00:00Небольшая облачность+19°C38 %720 мм2.0 м/с2 %
    03:00Ясно и безоблачно+19°C32 %719 мм3.1 м/с2 %
    06:00Небольшая облачность+17°C33 %720 мм2.2 м/с2 %
    09:00Ясно и безоблачно+22°C35 %722 мм1.6 м/с2 %
    12:00Облачно с прояснениями+30°C18 %721 мм2.4 м/с2 %
    15:00Облачно с прояснениями+33°C18 %719 мм1.4 м/с2 %
    18:00Практически безоблачно+28°C36 %719 мм1.9 м/с2 %
    21:00Практически безоблачно+25°C33 %720 мм1.7 м/с2 %
  • 25февраля
    Воскресенье
    +18°
    +34°
    Небольшая облачность
    ВремяПогодаТемператураВлажностьДавлениеВетер, м/сВероятность осадков
    00:00Небольшая облачность+21°C48 %720 мм2.1 м/с2 %
    03:00Облачно с прояснениями+21°C39 %719 мм2.0 м/с2 %
    06:00Практически безоблачно+18°C40 %720 мм2.2 м/с2 %
    09:00Ясно и безоблачно+24°C38 %722 мм0.6 м/с2 %
    12:00Ясно и безоблачно+31°C20 %722 мм1.6 м/с2 %
    15:00Небольшая облачность+34°C15 %719 мм2.4 м/с2 %
    18:00Облачно с прояснениями+29°C32 %719 мм1.9 м/с2 %
    21:00Ясно и безоблачно+26°C29 %720 мм0.6 м/с2 %
  • 26февраля
    Понедельник
    +22°
    +34°
    Ясно и безоблачно
    ВремяПогодаТемператураВлажностьДавлениеВетер, м/сВероятность осадков
    00:00Ясно и безоблачно+22°C35 %720 мм0.4 м/с2 %
    03:00Ясно и безоблачно+20°C49 %718 мм0.8 м/с2 %
    06:00Ясно и безоблачно+21°C39 %719 мм2.5 м/с2 %
    09:00Ясно и безоблачно+26°C66 %721 мм1.8 м/с2 %
    12:00Ясно и безоблачно+32°C43 %721 мм0.6 м/с2 %
    15:00Ясно и безоблачно+34°C29 %718 мм1.4 м/с2 %
    18:00Ясно и безоблачно+30°C49 %718 мм1.5 м/с2 %
    21:00Ясно и безоблачно+24°C55 %719 мм1.5 м/с2 %
Мы используем cookies
Соглашаюсь